createdAt,value
2018-02-24T00:01:49.067Z,34.35
2018-02-24T00:04:18.884Z,32.05
2018-02-24T00:06:48.717Z,31.12
2018-02-24T00:09:18.505Z,34.33
2018-02-24T00:11:48.340Z,30.45
2018-02-24T00:14:18.166Z,33.80
2018-02-24T00:16:47.694Z,35.15
2018-02-24T00:19:17.478Z,29.75
2018-02-24T00:21:47.304Z,32.80
2018-02-24T00:24:17.106Z,35.80
2018-02-24T00:26:46.914Z,27.65
2018-02-24T00:29:16.755Z,34.58
2018-02-24T00:31:46.529Z,27.25
2018-02-24T00:34:16.071Z,26.87
2018-02-24T00:36:45.884Z,32.20
2018-02-24T00:39:15.720Z,25.42
2018-02-24T00:41:45.762Z,31.73
2018-02-24T00:44:16.349Z,31.70
2018-02-24T00:46:46.342Z,25.75
2018-02-24T00:49:15.939Z,26.58
2018-02-24T00:51:45.161Z,31.08
2018-02-24T00:54:14.105Z,31.92
2018-02-24T00:56:44.499Z,28.65
2018-02-24T00:59:14.902Z,29.77
2018-02-24T01:01:44.877Z,35.17
2018-02-24T01:04:14.208Z,32.83
2018-02-24T01:06:44.058Z,28.92
2018-02-24T01:09:14.329Z,34.28
2018-02-24T01:11:44.156Z,29.92
2018-02-24T01:14:13.930Z,30.62
2018-02-24T01:16:43.741Z,29.30
2018-02-24T01:19:13.552Z,30.67
2018-02-24T01:21:43.110Z,29.10
2018-02-24T01:24:12.673Z,34.95
2018-02-24T01:26:42.185Z,35.95
2018-02-24T01:29:11.634Z,30.02
2018-02-24T01:31:41.465Z,31.40
2018-02-24T01:34:11.259Z,36.22
2018-02-24T01:36:40.804Z,32.50
2018-02-24T01:39:10.342Z,33.20
2018-02-24T01:41:39.890Z,29.37
2018-02-24T01:44:09.711Z,34.17
2018-02-24T01:46:39.543Z,32.95
2018-02-24T01:49:09.932Z,29.60
2018-02-24T01:51:39.749Z,31.52
2018-02-24T01:54:09.578Z,33.90
2018-02-24T01:56:39.410Z,31.10
2018-02-24T01:59:09.245Z,29.95
2018-02-24T02:01:39.027Z,32.17
2018-02-24T02:04:08.536Z,28.87
2018-02-24T02:06:38.326Z,32.58
2018-02-24T02:09:08.144Z,33.45
2018-02-24T02:11:37.688Z,29.63
2018-02-24T02:14:08.301Z,28.73
2018-02-24T02:16:38.148Z,30.05
2018-02-24T02:19:07.961Z,32.58
2018-02-24T02:21:37.773Z,29.10
2018-02-24T02:24:07.317Z,29.52
2018-02-24T02:26:37.140Z,32.28
2018-02-24T02:29:06.612Z,26.27
2018-02-24T02:31:36.412Z,32.08
2018-02-24T02:34:06.237Z,29.50
2018-02-24T02:36:36.016Z,32.25
2018-02-24T02:39:06.630Z,36.22
2018-02-24T02:41:36.422Z,29.75
2018-02-24T02:44:06.251Z,26.70
2018-02-24T02:46:36.520Z,33.03
2018-02-24T02:49:06.333Z,21.92
2018-02-24T02:51:36.132Z,21.58
2018-02-24T02:54:06.669Z,30.20
2018-02-24T02:56:36.482Z,30.83
2018-02-24T02:59:06.273Z,33.25
2018-02-24T03:01:36.847Z,28.42
2018-02-24T03:04:06.619Z,27.48
2018-02-24T03:06:37.210Z,31.27
2018-02-24T03:09:06.801Z,23.00
2018-02-24T03:11:36.633Z,24.92
2018-02-24T03:14:06.449Z,20.50
2018-02-24T03:16:36.323Z,21.55
2018-02-24T03:19:05.893Z,27.05
2018-02-24T03:21:35.681Z,26.25
2018-02-24T03:24:05.500Z,23.45
2018-02-24T03:26:35.416Z,23.42
2018-02-24T03:29:05.194Z,20.55
2018-02-24T03:31:35.015Z,19.10
2018-02-24T03:34:05.015Z,21.17
2018-02-24T03:36:34.610Z,18.85
2018-02-24T03:39:03.778Z,21.40
2018-02-24T03:41:33.377Z,20.75
2018-02-24T03:44:03.234Z,18.77
2018-02-24T03:46:32.867Z,20.25
2018-02-24T03:49:02.652Z,20.45
2018-02-24T03:51:32.617Z,18.42
2018-02-24T03:54:02.425Z,21.83
2018-02-24T03:56:32.299Z,23.25
2018-02-24T03:59:02.377Z,20.08
2018-02-24T04:01:31.964Z,19.75
2018-02-24T04:04:01.768Z,20.70
2018-02-24T04:06:31.354Z,16.75
2018-02-24T04:09:01.161Z,19.00
2018-02-24T04:11:31.017Z,16.67
2018-02-24T04:14:00.663Z,16.48
2018-02-24T04:16:31.305Z,19.45
2018-02-24T04:19:01.277Z,16.30
2018-02-24T04:21:31.077Z,17.60
2018-02-24T04:24:01.398Z,17.67
2018-02-24T04:26:31.156Z,19.90
2018-02-24T04:29:01.826Z,16.77
2018-02-24T04:31:31.666Z,18.30
2018-02-24T04:34:01.669Z,18.60
2018-02-24T04:36:31.493Z,22.83
2018-02-24T04:39:01.782Z,17.17
2018-02-24T04:41:31.341Z,22.33
2018-02-24T04:44:01.471Z,23.17
2018-02-24T04:46:31.293Z,24.02
2018-02-24T04:49:01.018Z,17.92
2018-02-24T04:51:31.743Z,17.77
2018-02-24T04:54:01.696Z,20.65
2018-02-24T04:56:32.436Z,25.05
2018-02-24T04:59:02.306Z,18.98
2018-02-24T05:01:33.863Z,26.77
2018-02-24T05:04:04.405Z,27.58
2018-02-24T05:06:34.247Z,22.92
2018-02-24T05:09:03.799Z,27.92
2018-02-24T05:11:33.352Z,33.58
2018-02-24T05:14:03.299Z,31.52
2018-02-24T05:16:33.997Z,29.20
2018-02-24T05:19:03.810Z,28.17
2018-02-24T05:21:33.600Z,33.13
2018-02-24T05:24:04.204Z,39.88
2018-02-24T05:26:33.861Z,37.75
2018-02-24T05:29:03.673Z,35.60
2018-02-24T05:31:33.512Z,38.65
2018-02-24T05:34:03.379Z,34.50
2018-02-24T05:36:33.468Z,30.48
2018-02-24T05:39:04.704Z,24.33
2018-02-24T05:41:34.355Z,23.35
2018-02-24T05:44:04.252Z,22.25
2018-02-24T05:46:34.888Z,18.80
2018-02-24T05:49:04.702Z,19.00
2018-02-24T05:51:34.556Z,19.12
2018-02-24T05:54:04.418Z,31.15
2018-02-24T05:56:34.305Z,18.95
2018-02-24T05:59:03.872Z,17.92
2018-02-24T06:01:33.698Z,18.10
2018-02-24T06:04:03.871Z,17.40
2018-02-24T06:06:33.974Z,19.50
2018-02-24T06:09:03.472Z,18.80
2018-02-24T06:11:33.024Z,16.45
2018-02-24T06:14:03.664Z,16.37
2018-02-24T06:16:34.379Z,18.05
2018-02-24T06:19:04.676Z,16.98
2018-02-24T06:21:36.594Z,27.30
2018-02-24T06:24:07.245Z,13.07
2018-02-24T06:26:36.920Z,12.23
2018-02-24T06:29:07.477Z,16.35
2018-02-24T06:31:37.316Z,20.12
2018-02-24T06:34:07.152Z,11.77
2018-02-24T06:36:36.908Z,14.05
2018-02-24T06:39:07.313Z,13.18
2018-02-24T06:41:37.877Z,11.45
2018-02-24T06:44:07.669Z,12.85
2018-02-24T06:46:37.192Z,14.48
2018-02-24T06:49:06.969Z,12.02
2018-02-24T06:51:36.764Z,14.18
2018-02-24T06:54:06.565Z,13.85
2018-02-24T06:56:36.354Z,17.08
2018-02-24T06:59:06.390Z,16.50
2018-02-24T07:01:36.219Z,22.37
2018-02-24T07:04:06.440Z,13.65
2018-02-24T07:06:36.502Z,15.85
2018-02-24T07:09:06.317Z,10.43
2018-02-24T07:11:36.844Z,8.85
2018-02-24T07:14:07.413Z,10.43
2018-02-24T07:16:37.505Z,9.43
2018-02-24T07:19:07.316Z,10.93
2018-02-24T07:21:37.090Z,7.90
2018-02-24T07:24:07.464Z,11.60
2018-02-24T07:26:37.778Z,5.30
2018-02-24T07:29:07.849Z,6.15
2018-02-24T07:31:38.061Z,3.55
2018-02-24T07:34:08.556Z,6.50
